createdAt,value
2019-02-22T00:00:45.317Z,39.30
2019-02-22T00:02:03.117Z,39.03
2019-02-22T00:03:07.893Z,38.88
2019-02-22T00:04:13.983Z,38.17
2019-02-22T00:05:18.735Z,38.90
2019-02-22T00:06:24.187Z,37.78
2019-02-22T00:07:29.009Z,36.83
2019-02-22T00:08:33.745Z,39.75
2019-02-22T00:09:49.154Z,39.90
2019-02-22T00:10:46.519Z,38.28
2019-02-22T00:11:51.833Z,36.55
2019-02-22T00:12:56.596Z,40.75
2019-02-22T00:14:03.541Z,38.20
2019-02-22T00:15:16.347Z,40.30
2019-02-22T00:16:21.298Z,41.05
2019-02-22T00:17:30.202Z,40.25
2019-02-22T00:18:44.111Z,39.63
2019-02-22T00:19:48.765Z,40.38
2019-02-22T00:20:53.977Z,37.58
2019-02-22T00:21:59.154Z,38.42
2019-02-22T00:23:04.134Z,39.45
2019-02-22T00:24:08.921Z,39.38
2019-02-22T00:25:14.207Z,38.15
2019-02-22T00:26:21.900Z,37.78
2019-02-22T00:27:31.277Z,39.35
2019-02-22T00:28:36.143Z,39.53
2019-02-22T00:29:40.894Z,40.45
2019-02-22T00:30:47.905Z,37.20
2019-02-22T00:31:53.859Z,39.18
2019-02-22T00:32:59.205Z,39.30
2019-02-22T00:34:04.024Z,39.38
2019-02-22T00:35:10.823Z,39.23
2019-02-22T00:36:17.028Z,41.08
2019-02-22T00:37:22.046Z,40.28
2019-02-22T00:38:30.124Z,38.80
2019-02-22T00:39:35.250Z,39.35
2019-02-22T00:40:40.121Z,40.20
2019-02-22T00:41:46.142Z,38.95
2019-02-22T00:42:50.971Z,40.15
2019-02-22T00:44:00.890Z,39.67
2019-02-22T00:45:06.218Z,39.78
2019-02-22T00:46:11.330Z,39.75
2019-02-22T00:47:16.260Z,38.17
2019-02-22T00:48:21.358Z,38.58
2019-02-22T00:49:26.209Z,38.58
2019-02-22T00:50:45.217Z,37.60
2019-02-22T00:52:08.608Z,38.33
2019-02-22T00:53:13.357Z,38.28
2019-02-22T00:54:18.322Z,38.95
2019-02-22T00:55:23.135Z,40.43
2019-02-22T00:56:29.346Z,42.35
2019-02-22T00:57:36.084Z,39.40
2019-02-22T00:58:41.296Z,40.43
2019-02-22T00:59:46.332Z,39.65
2019-02-22T01:00:52.057Z,37.50
2019-02-22T01:01:57.439Z,38.98
2019-02-22T01:03:11.397Z,39.45
2019-02-22T01:04:19.040Z,41.48
2019-02-22T01:05:24.180Z,41.58
2019-02-22T01:06:28.932Z,40.10
2019-02-22T01:07:33.725Z,41.10
2019-02-22T01:08:38.537Z,41.20
2019-02-22T01:09:43.969Z,41.63
2019-02-22T01:10:48.773Z,41.48
2019-02-22T01:11:53.522Z,46.08
2019-02-22T01:12:58.322Z,45.90
2019-02-22T01:14:03.264Z,47.45
2019-02-22T01:15:08.437Z,43.95
2019-02-22T01:16:13.328Z,42.50
2019-02-22T01:17:18.273Z,43.42
2019-02-22T01:18:23.087Z,46.45
2019-02-22T01:19:27.798Z,45.33
2019-02-22T01:20:32.574Z,45.63
2019-02-22T01:21:37.372Z,48.83
2019-02-22T01:22:51.117Z,46.10
2019-02-22T01:23:58.955Z,46.23
2019-02-22T01:25:03.696Z,50.38
2019-02-22T01:26:08.806Z,48.15
2019-02-22T01:27:13.787Z,46.33
2019-02-22T01:28:18.561Z,51.42
2019-02-22T01:29:23.862Z,48.38
2019-02-22T01:30:28.972Z,48.15
2019-02-22T01:31:33.731Z,49.25
2019-02-22T01:32:38.529Z,52.17
2019-02-22T01:33:43.303Z,48.65
2019-02-22T01:34:48.146Z,49.23
2019-02-22T01:35:53.618Z,47.73
2019-02-22T01:36:58.346Z,48.98
2019-02-22T01:38:03.130Z,50.67
2019-02-22T01:39:07.997Z,48.40
2019-02-22T01:40:12.867Z,48.58
2019-02-22T01:41:18.234Z,43.87
2019-02-22T01:42:22.959Z,45.45
2019-02-22T01:43:27.771Z,51.15
2019-02-22T01:44:32.865Z,47.58
2019-02-22T01:45:37.752Z,48.78
2019-02-22T01:46:42.894Z,47.38
2019-02-22T01:47:49.085Z,48.20
2019-02-22T01:48:55.597Z,47.95
2019-02-22T01:50:00.986Z,50.23
2019-02-22T01:51:05.746Z,47.55
2019-02-22T01:52:10.553Z,49.48
2019-02-22T01:53:15.356Z,47.80
2019-02-22T01:54:20.106Z,48.78
2019-02-22T01:55:25.186Z,46.48
2019-02-22T01:56:30.173Z,46.90
2019-02-22T01:57:35.160Z,47.33
2019-02-22T01:58:48.401Z,49.30
2019-02-22T01:59:46.320Z,48.98
2019-02-22T02:00:51.088Z,50.05
2019-02-22T02:01:55.841Z,49.33
2019-02-22T02:03:00.692Z,51.92
2019-02-22T02:04:05.420Z,51.48
2019-02-22T02:05:10.485Z,50.75
2019-02-22T02:06:15.218Z,49.25
2019-02-22T02:07:20.237Z,49.80
2019-02-22T02:08:26.293Z,51.18
2019-02-22T02:09:31.113Z,51.58
2019-02-22T02:10:36.497Z,51.30
2019-02-22T02:11:41.224Z,51.10
2019-02-22T02:12:46.230Z,49.65
2019-02-22T02:13:53.766Z,49.40
2019-02-22T02:14:58.518Z,52.05
2019-02-22T02:16:03.406Z,50.85
2019-02-22T02:17:08.156Z,49.77
2019-02-22T02:18:13.033Z,50.45
2019-02-22T02:19:17.805Z,48.20
2019-02-22T02:20:24.313Z,50.08
2019-02-22T02:21:29.028Z,49.18
2019-02-22T02:22:33.761Z,46.75
2019-02-22T02:23:38.586Z,49.55
2019-02-22T02:24:43.345Z,48.08
2019-02-22T02:25:48.085Z,50.20
2019-02-22T02:26:52.985Z,47.27
2019-02-22T02:27:57.736Z,50.55
2019-02-22T02:29:06.209Z,48.28
2019-02-22T02:30:11.330Z,49.23
2019-02-22T02:31:16.365Z,48.55
2019-02-22T02:32:21.515Z,47.80
2019-02-22T02:33:26.723Z,48.45
2019-02-22T02:34:31.539Z,48.45
2019-02-22T02:35:36.687Z,48.58
2019-02-22T02:36:42.202Z,47.78
2019-02-22T02:37:47.592Z,49.08
2019-02-22T02:38:52.920Z,49.27
2019-02-22T02:39:57.751Z,48.58
2019-02-22T02:41:08.363Z,48.55
2019-02-22T02:42:09.023Z,47.65
2019-02-22T02:43:13.799Z,48.23
2019-02-22T02:44:18.551Z,46.73
2019-02-22T02:45:23.325Z,45.17
2019-02-22T02:46:28.069Z,46.65
2019-02-22T02:47:32.893Z,45.95
2019-02-22T02:48:37.633Z,44.63
2019-02-22T02:49:42.395Z,43.95
2019-02-22T02:50:47.145Z,44.08
2019-02-22T02:51:52.191Z,43.60
2019-02-22T02:52:57.350Z,44.95
2019-02-22T02:54:02.612Z,45.48
2019-02-22T02:55:31.994Z,44.53
2019-02-22T02:56:36.810Z,43.83
2019-02-22T02:57:42.001Z,44.27
2019-02-22T02:58:47.421Z,41.13
2019-02-22T02:59:52.262Z,44.53
2019-02-22T03:00:57.419Z,43.02
2019-02-22T03:02:03.536Z,44.65
2019-02-22T03:03:08.292Z,44.98
2019-02-22T03:04:13.249Z,45.35
2019-02-22T03:05:19.817Z,43.15
2019-02-22T03:06:31.466Z,43.52
2019-02-22T03:07:43.591Z,42.33
2019-02-22T03:08:48.416Z,41.75
2019-02-22T03:09:53.243Z,44.30
2019-02-22T03:10:57.996Z,45.00
2019-02-22T03:12:02.729Z,45.15
2019-02-22T03:13:07.437Z,42.05
2019-02-22T03:14:12.229Z,43.73
2019-02-22T03:15:18.317Z,44.27
2019-02-22T03:16:23.121Z,42.73
2019-02-22T03:17:27.906Z,42.53
2019-02-22T03:18:33.542Z,45.43
2019-02-22T03:19:38.878Z,44.38
2019-02-22T03:20:43.628Z,47.70
2019-02-22T03:21:48.386Z,42.05
2019-02-22T03:22:53.137Z,42.62
2019-02-22T03:23:58.109Z,42.17
2019-02-22T03:25:03.275Z,41.23
2019-02-22T03:26:08.248Z,40.88
2019-02-22T03:27:12.960Z,41.92
2019-02-22T03:28:17.746Z,41.33
2019-02-22T03:29:22.805Z,41.25
2019-02-22T03:30:27.591Z,40.88
2019-02-22T03:31:33.113Z,41.25
2019-02-22T03:32:38.662Z,42.03
2019-02-22T03:33:43.875Z,41.35
2019-02-22T03:34:48.840Z,41.23
2019-02-22T03:35:54.055Z,42.33
2019-02-22T03:36:58.949Z,39.75
2019-02-22T03:38:05.982Z,37.85
2019-02-22T03:39:10.714Z,40.70
2019-02-22T03:40:15.483Z,41.70
2019-02-22T03:41:31.930Z,41.53
2019-02-22T03:42:27.012Z,40.73
2019-02-22T03:43:31.909Z,41.10
2019-02-22T03:44:37.532Z,40.48
2019-02-22T03:45:42.321Z,42.67
2019-02-22T03:46:47.348Z,40.38
2019-02-22T03:47:52.048Z,38.65
2019-02-22T03:48:56.885Z,40.03
2019-02-22T03:50:01.764Z,43.58
2019-02-22T03:51:07.097Z,42.13
2019-02-22T03:52:28.547Z,41.33
2019-02-22T03:53:37.049Z,41.85
2019-02-22T03:54:41.796Z,42.17
2019-02-22T03:55:46.710Z,41.75
2019-02-22T03:56:51.472Z,41.18
2019-02-22T03:57:56.218Z,42.30
2019-02-22T03:59:01.005Z,40.60
2019-02-22T04:00:06.207Z,43.50
2019-02-22T04:01:12.821Z,42.70
2019-02-22T04:02:17.561Z,44.50
2019-02-22T04:03:22.303Z,45.45
2019-02-22T04:04:27.276Z,42.10
2019-02-22T04:05:34.922Z,43.40
2019-02-22T04:06:39.693Z,41.48
2019-02-22T04:07:44.455Z,41.58
2019-02-22T04:08:49.205Z,40.63
2019-02-22T04:09:54.037Z,40.43
2019-02-22T04:10:58.880Z,44.53
2019-02-22T04:12:03.628Z,42.53
2019-02-22T04:13:08.382Z,42.88
2019-02-22T04:14:13.482Z,45.25
2019-02-22T04:15:18.813Z,44.13
2019-02-22T04:16:23.809Z,42.53
2019-02-22T04:17:28.555Z,42.53
2019-02-22T04:18:33.395Z,41.90
2019-02-22T04:19:38.345Z,42.58
2019-02-22T04:20:43.321Z,42.85
2019-02-22T04:21:49.688Z,42.17
2019-02-22T04:22:54.697Z,41.42
2019-02-22T04:23:59.416Z,41.37
2019-02-22T04:25:04.139Z,42.75
2019-02-22T04:26:08.983Z,40.78
2019-02-22T04:27:13.789Z,42.23
2019-02-22T04:28:18.551Z,39.90
2019-02-22T04:29:23.277Z,42.13
2019-02-22T04:30:27.993Z,40.70
2019-02-22T04:31:32.807Z,40.60
2019-02-22T04:32:37.633Z,40.50
2019-02-22T04:33:42.389Z,41.55
2019-02-22T04:34:47.149Z,40.33
2019-02-22T04:35:52.089Z,39.20
2019-02-22T04:36:56.889Z,42.23
2019-02-22T04:38:01.741Z,40.60
2019-02-22T04:39:40.214Z,38.40
2019-02-22T04:40:45.320Z,40.78
2019-02-22T04:41:58.166Z,40.52
2019-02-22T04:42:59.650Z,37.95
2019-02-22T04:44:04.571Z,40.55
2019-02-22T04:45:09.701Z,42.58
2019-02-22T04:46:14.516Z,42.48
2019-02-22T04:47:19.354Z,41.48
2019-02-22T04:48:24.275Z,44.20
2019-02-22T04:49:41.031Z,42.65
2019-02-22T04:50:45.839Z,43.80
2019-02-22T04:51:52.941Z,41.55
2019-02-22T04:53:00.092Z,39.92
2019-02-22T04:54:07.504Z,44.15
2019-02-22T04:55:12.406Z,43.15
2019-02-22T04:56:17.181Z,41.20
2019-02-22T04:57:22.227Z,43.87
2019-02-22T04:58:27.562Z,45.20
2019-02-22T04:59:32.377Z,43.08
2019-02-22T05:00:37.322Z,43.23
2019-02-22T05:01:45.033Z,46.75
2019-02-22T05:02:49.795Z,44.67
2019-02-22T05:03:55.088Z,45.23
2019-02-22T05:04:59.887Z,45.50
2019-02-22T05:06:05.034Z,46.48
2019-02-22T05:07:10.185Z,45.60
2019-02-22T05:08:17.111Z,47.08
2019-02-22T05:09:22.016Z,47.73
2019-02-22T05:10:27.481Z,44.93
2019-02-22T05:11:32.266Z,44.45
2019-02-22T05:12:37.168Z,44.83
2019-02-22T05:13:41.942Z,44.03
2019-02-22T05:14:47.133Z,45.28
2019-02-22T05:15:54.962Z,45.30
2019-02-22T05:16:59.786Z,43.83
2019-02-22T05:18:12.296Z,46.20
2019-02-22T05:19:23.092Z,45.95
2019-02-22T05:20:27.939Z,43.33
2019-02-22T05:21:37.810Z,46.40
2019-02-22T05:22:44.919Z,43.90
2019-02-22T05:23:50.213Z,43.23
2019-02-22T05:24:55.044Z,46.20
2019-02-22T05:26:00.266Z,45.43
2019-02-22T05:27:05.115Z,45.70
2019-02-22T05:28:09.901Z,45.52
2019-02-22T05:29:14.722Z,45.25
2019-02-22T05:30:23.994Z,46.45
2019-02-22T05:31:28.962Z,41.95
2019-02-22T05:32:33.978Z,44.60
2019-02-22T05:33:38.930Z,46.60
2019-02-22T05:34:43.914Z,41.33
2019-02-22T05:35:49.592Z,44.53
2019-02-22T05:36:58.482Z,45.52
2019-02-22T05:38:03.296Z,45.17
2019-02-22T05:39:18.681Z,46.92
2019-02-22T05:40:15.123Z,46.50
2019-02-22T05:41:20.436Z,44.90
2019-02-22T05:42:28.675Z,47.45
2019-02-22T05:43:33.387Z,47.45
2019-02-22T05:44:38.243Z,48.85
2019-02-22T05:45:44.286Z,46.98
2019-02-22T05:46:59.886Z,47.05
2019-02-22T05:47:56.163Z,45.03
2019-02-22T05:49:01.220Z,48.60
2019-02-22T05:50:06.673Z,46.83
2019-02-22T05:51:12.035Z,45.98
2019-02-22T05:52:16.948Z,45.85
2019-02-22T05:53:21.857Z,43.75
2019-02-22T05:54:26.729Z,46.88
2019-02-22T05:55:32.390Z,42.80
2019-02-22T05:56:37.324Z,46.88
2019-02-22T05:57:42.172Z,46.48
2019-02-22T05:58:47.009Z,46.08
2019-02-22T05:59:51.818Z,43.58
2019-02-22T06:00:58.649Z,46.45
2019-02-22T06:02:06.574Z,45.63
2019-02-22T06:03:14.995Z,44.67
2019-02-22T06:04:22.134Z,45.52
2019-02-22T06:05:29.883Z,45.50
2019-02-22T06:06:34.715Z,44.77
2019-02-22T06:07:43.166Z,45.92
2019-02-22T06:08:48.251Z,45.83
2019-02-22T06:09:53.909Z,46.13
2019-02-22T06:11:00.963Z,48.28
2019-02-22T06:12:06.615Z,46.18
2019-02-22T06:13:14.803Z,48.83
2019-02-22T06:14:22.699Z,48.70
2019-02-22T06:15:37.307Z,44.42
2019-02-22T06:16:47.300Z,48.78
2019-02-22T06:17:55.202Z,44.88
2019-02-22T06:19:01.255Z,48.55
2019-02-22T06:20:07.578Z,50.52
2019-02-22T06:21:17.873Z,47.40
2019-02-22T06:22:29.581Z,50.92
2019-02-22T06:23:30.441Z,50.73
2019-02-22T06:24:36.134Z,49.95
2019-02-22T06:25:43.708Z,52.35
2019-02-22T06:26:49.197Z,51.70
2019-02-22T06:27:54.568Z,52.75
2019-02-22T06:28:59.421Z,48.85
2019-02-22T06:30:04.507Z,49.10
2019-02-22T06:31:11.016Z,47.20
2019-02-22T06:32:18.726Z,50.38
2019-02-22T06:33:24.475Z,50.35
2019-02-22T06:34:30.169Z,53.50
2019-02-22T06:35:35.029Z,52.60
2019-02-22T06:36:39.942Z,53.23
2019-02-22T06:37:45.151Z,52.10
2019-02-22T06:38:50.640Z,54.63
2019-02-22T06:39:55.663Z,52.23
2019-02-22T06:41:01.260Z,51.70
2019-02-22T06:42:06.683Z,52.48
2019-02-22T06:43:11.525Z,50.75
2019-02-22T06:44:17.160Z,52.15
2019-02-22T06:45:24.303Z,55.98
2019-02-22T06:46:29.332Z,53.80
2019-02-22T06:47:34.953Z,53.48
2019-02-22T06:48:39.731Z,52.45
2019-02-22T06:49:44.675Z,53.28
2019-02-22T06:50:49.697Z,52.60
2019-02-22T06:51:54.700Z,52.25
2019-02-22T06:53:01.658Z,50.38
2019-02-22T06:54:10.135Z,53.08
2019-02-22T06:55:14.981Z,50.65
2019-02-22T06:56:20.020Z,56.28
2019-02-22T06:57:24.890Z,54.85
2019-02-22T06:58:29.815Z,51.40
2019-02-22T06:59:35.258Z,52.08
2019-02-22T07:00:40.062Z,54.93
2019-02-22T07:01:45.093Z,54.65
2019-02-22T07:02:50.252Z,53.15
2019-02-22T07:03:55.118Z,54.40
2019-02-22T07:05:02.903Z,52.90
2019-02-22T07:06:07.699Z,54.20
2019-02-22T07:07:13.125Z,51.77
2019-02-22T07:08:17.960Z,53.95
2019-02-22T07:09:22.792Z,54.23
2019-02-22T07:10:28.635Z,55.45
2019-02-22T07:11:58.104Z,51.58
2019-02-22T07:13:08.503Z,51.65
2019-02-22T07:14:13.397Z,54.45
2019-02-22T07:15:18.448Z,53.42
2019-02-22T07:16:23.189Z,52.60
2019-02-22T07:17:28.276Z,53.15
2019-02-22T07:18:35.759Z,53.30
2019-02-22T07:19:43.536Z,55.67
2019-02-22T07:20:48.350Z,54.88
2019-02-22T07:21:53.291Z,53.40
2019-02-22T07:22:58.426Z,53.83
2019-02-22T07:24:03.381Z,54.58
2019-02-22T07:25:12.067Z,53.80
2019-02-22T07:26:17.246Z,50.52
2019-02-22T07:27:22.642Z,50.80
2019-02-22T07:28:29.562Z,50.73
2019-02-22T07:29:34.875Z,53.20
2019-02-22T07:30:40.192Z,51.88
2019-02-22T07:31:45.173Z,55.00
2019-02-22T07:32:53.489Z,52.78
2019-02-22T07:33:58.321Z,51.68
2019-02-22T07:35:06.879Z,53.00
2019-02-22T07:36:11.712Z,56.28
2019-02-22T07:37:20.017Z,53.70
2019-02-22T07:38:27.079Z,54.27
2019-02-22T07:39:36.360Z,53.68
2019-02-22T07:40:42.195Z,56.28
2019-02-22T07:41:47.151Z,54.70
2019-02-22T07:42:51.934Z,53.95
2019-02-22T07:43:56.858Z,52.93
2019-02-22T07:45:02.036Z,51.63
2019-02-22T07:46:08.083Z,50.48
2019-02-22T07:47:13.028Z,52.55
2019-02-22T07:48:18.466Z,49.45
2019-02-22T07:49:25.481Z,51.63
2019-02-22T07:50:30.796Z,50.20
2019-02-22T07:51:35.595Z,48.48
2019-02-22T07:52:41.125Z,51.88
2019-02-22T07:53:46.263Z,51.65
2019-02-22T07:54:51.260Z,48.87
2019-02-22T07:55:56.722Z,49.80
2019-02-22T07:57:02.263Z,51.95
2019-02-22T07:58:08.762Z,51.80
2019-02-22T07:59:14.092Z,50.65
2019-02-22T08:00:21.593Z,54.90
2019-02-22T08:01:27.065Z,51.18
2019-02-22T08:02:32.301Z,52.27
2019-02-22T08:03:40.011Z,50.45
2019-02-22T08:04:45.175Z,49.35
2019-02-22T08:05:58.105Z,49.90
2019-02-22T08:07:08.468Z,52.58
2019-02-22T08:08:13.368Z,52.67
2019-02-22T08:09:22.716Z,54.48
2019-02-22T08:10:27.536Z,56.00
2019-02-22T08:11:32.859Z,52.38
2019-02-22T08:12:37.862Z,53.87
2019-02-22T08:13:42.764Z,52.55
2019-02-22T08:14:48.150Z,53.17
2019-02-22T08:15:53.444Z,51.95
2019-02-22T08:16:58.270Z,47.55
2019-02-22T08:18:03.218Z,49.38
2019-02-22T08:19:11.564Z,52.03
2019-02-22T08:20:16.743Z,50.58
2019-02-22T08:21:23.131Z,50.10
2019-02-22T08:22:35.223Z,51.88
2019-02-22T08:23:40.182Z,49.75
2019-02-22T08:24:45.886Z,49.20
2019-02-22T08:25:50.926Z,52.30
2019-02-22T08:26:57.327Z,53.05
2019-02-22T08:28:02.844Z,50.52
2019-02-22T08:29:10.279Z,53.02
2019-02-22T08:30:15.485Z,50.67
2019-02-22T08:31:20.720Z,48.35
2019-02-22T08:32:31.606Z,52.38
2019-02-22T08:33:39.603Z,49.40
2019-02-22T08:34:45.948Z,53.38
2019-02-22T08:35:58.475Z,51.92
2019-02-22T08:37:03.301Z,50.75
2019-02-22T08:38:12.055Z,48.38
2019-02-22T08:39:17.286Z,48.48
2019-02-22T08:40:32.502Z,48.08
2019-02-22T08:41:38.431Z,47.27
2019-02-22T08:42:43.714Z,51.85
2019-02-22T08:43:52.222Z,45.58
2019-02-22T08:45:02.339Z,47.60
2019-02-22T08:46:07.863Z,43.98
2019-02-22T08:47:14.424Z,48.40
2019-02-22T08:48:22.390Z,49.75
2019-02-22T08:49:31.099Z,47.10
2019-02-22T08:50:36.247Z,46.77
2019-02-22T08:51:42.199Z,43.75
2019-02-22T08:52:47.277Z,45.60
2019-02-22T08:53:52.514Z,51.73
2019-02-22T08:54:57.694Z,47.50
2019-02-22T08:56:03.902Z,47.05
2019-02-22T08:57:09.269Z,49.93
2019-02-22T08:58:17.277Z,50.20
2019-02-22T08:59:33.072Z,49.15
2019-02-22T09:00:38.267Z,50.67
2019-02-22T09:01:43.087Z,49.20
2019-02-22T09:02:48.280Z,50.43
2019-02-22T09:03:56.458Z,49.77
2019-02-22T09:05:01.365Z,48.00
2019-02-22T09:06:06.431Z,47.20
2019-02-22T09:07:11.770Z,46.10
2019-02-22T09:08:18.901Z,48.15
2019-02-22T09:09:24.413Z,43.25
2019-02-22T09:10:29.643Z,48.02
2019-02-22T09:11:37.357Z,49.18
2019-02-22T09:12:47.177Z,47.08
2019-02-22T09:13:52.321Z,45.12
2019-02-22T09:15:00.458Z,47.10
2019-02-22T09:16:10.385Z,48.58
2019-02-22T09:17:15.609Z,46.85
2019-02-22T09:18:22.103Z,44.88
2019-02-22T09:19:27.197Z,46.70
2019-02-22T09:20:37.970Z,46.77
2019-02-22T09:21:43.219Z,46.37
2019-02-22T09:22:48.396Z,50.03
2019-02-22T09:23:59.344Z,51.15
2019-02-22T09:25:05.178Z,46.77
2019-02-22T09:26:10.123Z,46.20
2019-02-22T09:27:20.702Z,45.00
2019-02-22T09:28:26.382Z,47.15
2019-02-22T09:29:31.604Z,46.23
2019-02-22T09:30:38.717Z,47.13
2019-02-22T09:31:44.725Z,49.10
2019-02-22T09:32:50.128Z,46.33
2019-02-22T09:33:56.112Z,48.05
2019-02-22T09:35:01.555Z,46.23
2019-02-22T09:36:06.725Z,46.75
2019-02-22T09:37:13.351Z,47.08
2019-02-22T09:38:25.059Z,46.92
2019-02-22T09:39:37.560Z,45.33
2019-02-22T09:40:45.185Z,45.30
2019-02-22T09:41:50.260Z,45.88
2019-02-22T09:42:55.414Z,45.45
2019-02-22T09:44:02.783Z,45.33
2019-02-22T09:45:12.566Z,45.58
2019-02-22T09:46:17.698Z,44.08
2019-02-22T09:47:23.209Z,47.43
2019-02-22T09:48:28.717Z,51.33
2019-02-22T09:49:33.688Z,48.17
2019-02-22T09:50:42.368Z,49.25
2019-02-22T09:51:47.724Z,47.62
2019-02-22T09:52:54.198Z,48.30
2019-02-22T09:54:00.181Z,45.43
2019-02-22T09:55:06.860Z,45.65
2019-02-22T09:56:13.675Z,45.15
2019-02-22T09:57:22.797Z,44.67
2019-02-22T09:58:30.977Z,41.00
2019-02-22T09:59:36.584Z,45.40
2019-02-22T10:00:43.027Z,42.78
2019-02-22T10:01:49.199Z,44.10
2019-02-22T10:02:55.065Z,42.48
2019-02-22T10:04:00.347Z,41.45
2019-02-22T10:05:05.988Z,39.18
2019-02-22T10:06:18.307Z,40.85
2019-02-22T10:07:28.147Z,38.02
2019-02-22T10:08:33.711Z,39.38
2019-02-22T10:09:38.539Z,39.38
2019-02-22T10:10:45.080Z,40.17
2019-02-22T10:11:51.079Z,40.25
2019-02-22T10:12:58.916Z,38.33
2019-02-22T10:14:06.869Z,41.53
2019-02-22T10:15:12.016Z,40.05
2019-02-22T10:16:17.093Z,42.62
2019-02-22T10:17:23.889Z,40.05
2019-02-22T10:18:30.555Z,37.90
2019-02-22T10:19:35.945Z,38.80
2019-02-22T10:20:48.895Z,36.63
2019-02-22T10:21:57.747Z,38.83
2019-02-22T10:23:03.197Z,37.67
2019-02-22T10:24:11.294Z,38.10
2019-02-22T10:25:19.132Z,37.93
2019-02-22T10:26:25.308Z,36.98
2019-02-22T10:27:30.338Z,35.38
2019-02-22T10:28:36.084Z,36.08
2019-02-22T10:29:45.426Z,32.98
2019-02-22T10:30:50.471Z,35.00
2019-02-22T10:31:58.256Z,34.80
2019-02-22T10:33:03.583Z,32.40
2019-02-22T10:34:10.654Z,33.00
2019-02-22T10:35:18.709Z,31.77
2019-02-22T10:36:26.457Z,31.50
2019-02-22T10:37:31.311Z,31.62
2019-02-22T10:38:36.499Z,32.30
2019-02-22T10:39:44.247Z,33.23
2019-02-22T10:40:50.382Z,31.25
2019-02-22T10:41:55.748Z,30.72
2019-02-22T10:43:00.927Z,30.68
2019-02-22T10:44:17.379Z,32.60
2019-02-22T10:45:15.093Z,30.50
2019-02-22T10:46:22.144Z,30.15
2019-02-22T10:47:26.480Z,33.58
2019-02-22T10:48:31.336Z,35.38
2019-02-22T10:49:36.814Z,30.95
2019-02-22T10:50:42.251Z,33.50
2019-02-22T10:51:47.776Z,32.73
2019-02-22T10:53:01.859Z,32.88
2019-02-22T10:54:00.090Z,28.62
2019-02-22T10:55:08.677Z,30.52
2019-02-22T10:56:13.483Z,27.45
2019-02-22T10:57:18.369Z,28.40
2019-02-22T10:58:23.462Z,25.80
2019-02-22T10:59:28.248Z,25.30
2019-02-22T11:00:37.570Z,28.00
2019-02-22T11:01:43.190Z,24.70
2019-02-22T11:02:48.186Z,23.47
2019-02-22T11:03:53.354Z,21.93
2019-02-22T11:04:58.483Z,22.00
2019-02-22T11:06:03.655Z,21.62
2019-02-22T11:07:08.794Z,20.25
2019-02-22T11:08:16.232Z,22.40
2019-02-22T11:09:21.736Z,24.75
2019-02-22T11:10:33.254Z,23.42
2019-02-22T11:11:37.431Z,22.93
2019-02-22T11:12:42.242Z,21.55
2019-02-22T11:13:49.808Z,24.90
2019-02-22T11:14:56.013Z,21.75
2019-02-22T11:16:01.054Z,20.75
2019-02-22T11:17:06.350Z,20.95
2019-02-22T11:18:11.305Z,25.55
2019-02-22T11:19:16.186Z,23.22
2019-02-22T11:20:24.196Z,23.87
2019-02-22T11:21:30.339Z,22.35
2019-02-22T11:22:55.375Z,19.90
2019-02-22T11:24:02.342Z,18.73
2019-02-22T11:25:10.860Z,16.50
2019-02-22T11:26:16.656Z,16.42
2019-02-22T11:27:23.788Z,15.03
2019-02-22T11:28:32.328Z,13.68
2019-02-22T11:29:49.422Z,14.00
2019-02-22T11:30:56.686Z,14.35
2019-02-22T11:32:03.264Z,15.88
2019-02-22T11:33:30.797Z,14.98
2019-02-22T11:34:38.920Z,14.10
2019-02-22T11:35:44.802Z,13.98
2019-02-22T11:36:50.422Z,14.98
2019-02-22T11:37:55.627Z,16.52
2019-02-22T11:39:03.761Z,13.85
2019-02-22T11:40:09.465Z,15.28
2019-02-22T11:41:18.283Z,14.60
2019-02-22T11:42:24.080Z,15.10
2019-02-22T11:43:30.372Z,14.65
2019-02-22T11:44:40.452Z,14.18
2019-02-22T11:45:45.301Z,12.20
2019-02-22T11:46:50.354Z,11.90
2019-02-22T11:47:55.582Z,12.68
2019-02-22T11:49:00.556Z,13.10
2019-02-22T11:50:06.721Z,13.62
2019-02-22T11:51:21.081Z,13.60
2019-02-22T11:52:28.996Z,12.85
2019-02-22T11:53:39.452Z,12.25
2019-02-22T11:54:46.457Z,10.93
2019-02-22T11:55:57.502Z,11.30
2019-02-22T11:57:04.269Z,10.70
2019-02-22T11:58:12.542Z,19.77
2019-02-22T11:59:18.747Z,22.30
2019-02-22T12:00:26.848Z,27.00
2019-02-22T12:01:36.223Z,17.77
2019-02-22T12:02:45.910Z,11.35
2019-02-22T12:03:51.371Z,11.33
2019-02-22T12:04:56.230Z,8.70
2019-02-22T12:06:04.288Z,9.20
2019-02-22T12:07:09.737Z,9.20
2019-02-22T12:08:14.693Z,8.30
2019-02-22T12:09:20.308Z,8.23
2019-02-22T12:10:28.581Z,6.97
2019-02-22T12:11:39.307Z,6.40
2019-02-22T12:12:44.468Z,6.87
2019-02-22T12:13:51.316Z,6.97
2019-02-22T12:14:57.708Z,7.40
2019-02-22T12:16:02.813Z,7.33
2019-02-22T12:17:07.855Z,6.58
2019-02-22T12:18:15.433Z,7.67
2019-02-22T12:19:20.308Z,6.25
2019-02-22T12:20:25.461Z,6.33
2019-02-22T12:21:30.686Z,6.92
2019-02-22T12:22:39.103Z,6.25
2019-02-22T12:23:44.429Z,5.47
2019-02-22T12:24:50.239Z,5.47
2019-02-22T12:25:55.356Z,5.78
2019-02-22T12:27:16.049Z,4.92
2019-02-22T12:28:25.855Z,6.50
2019-02-22T12:29:54.572Z,6.00
2019-02-22T12:31:00.300Z,5.80
2019-02-22T12:32:05.656Z,6.50
2019-02-22T12:33:11.228Z,6.17
2019-02-22T12:34:16.612Z,6.17
2019-02-22T12:35:26.759Z,6.25
2019-02-22T12:36:39.117Z,6.45
2019-02-22T12:37:46.717Z,6.97
2019-02-22T12:38:52.190Z,6.65
2019-02-22T12:39:57.342Z,6.45
2019-02-22T12:41:05.707Z,6.83
2019-02-22T12:42:14.934Z,8.35
2019-02-22T12:43:20.439Z,7.87
2019-02-22T12:44:25.755Z,7.75
2019-02-22T12:45:31.213Z,5.95
2019-02-22T12:46:37.877Z,6.42
2019-02-22T12:47:46.243Z,5.80
2019-02-22T12:48:51.236Z,6.65
2019-02-22T12:49:59.481Z,7.15
2019-02-22T12:51:04.926Z,6.70
2019-02-22T12:52:10.288Z,6.40
2019-02-22T12:53:15.189Z,6.33
2019-02-22T12:54:20.534Z,6.42
2019-02-22T12:59:19.136Z,6.00
2019-02-22T13:03:14.105Z,5.45
2019-02-22T13:04:23.092Z,5.87
2019-02-22T13:05:36.586Z,5.97
2019-02-22T13:06:44.392Z,5.78
2019-02-22T13:08:06.597Z,5.40
2019-02-22T13:09:12.964Z,5.87
2019-02-22T13:12:14.074Z,6.00
2019-02-22T13:15:48.588Z,6.08
2019-02-22T13:17:30.281Z,6.20
2019-02-22T13:18:33.190Z,5.65
2019-02-22T13:19:41.474Z,6.00
2019-02-22T13:20:53.187Z,6.22
2019-02-22T13:22:33.080Z,4.75
2019-02-22T13:23:38.116Z,5.05
2019-02-22T13:24:43.589Z,5.58
2019-02-22T13:25:50.250Z,4.55
2019-02-22T13:26:55.958Z,5.97
2019-02-22T13:28:03.396Z,6.58
2019-02-22T13:29:09.295Z,5.20
2019-02-22T13:30:23.728Z,5.55
2019-02-22T13:31:30.271Z,5.20
2019-02-22T13:32:35.354Z,5.97
2019-02-22T13:33:48.576Z,6.75
2019-02-22T13:34:54.958Z,6.87
2019-02-22T13:36:06.735Z,7.30
2019-02-22T13:37:18.342Z,7.15
2019-02-22T13:38:27.108Z,7.92
2019-02-22T13:39:33.353Z,7.53
2019-02-22T13:42:51.229Z,6.65
2019-02-22T13:43:59.601Z,6.40
2019-02-22T13:45:08.714Z,6.37
2019-02-22T13:47:26.318Z,6.80
2019-02-22T13:48:34.647Z,6.10
2019-02-22T13:49:40.149Z,5.90
2019-02-22T13:51:54.543Z,5.90
2019-02-22T13:53:01.918Z,6.00
2019-02-22T13:54:08.202Z,6.15
2019-02-22T13:55:55.840Z,6.55
2019-02-22T13:57:02.592Z,6.30
2019-02-22T13:58:11.601Z,6.40
2019-02-22T13:59:16.710Z,6.75
2019-02-22T14:00:21.779Z,7.15
2019-02-22T14:01:27.716Z,8.65
2019-02-22T14:02:39.227Z,7.12
2019-02-22T14:03:44.325Z,7.83
2019-02-22T14:04:55.513Z,7.33
2019-02-22T14:06:32.296Z,7.80
2019-02-22T14:07:40.205Z,6.83
2019-02-22T14:08:51.328Z,7.03
2019-02-22T14:10:03.303Z,7.20
2019-02-22T14:11:11.941Z,7.42
2019-02-22T14:12:20.603Z,8.30
2019-02-22T14:13:27.436Z,8.63
2019-02-22T14:14:32.625Z,7.60
2019-02-22T14:15:38.536Z,9.70
2019-02-22T14:16:43.864Z,9.20
2019-02-22T14:17:51.983Z,9.08
2019-02-22T14:18:57.406Z,7.75
2019-02-22T14:20:02.378Z,7.87
2019-02-22T14:21:10.783Z,7.78
2019-02-22T14:22:16.265Z,8.38
2019-02-22T14:23:22.187Z,8.53
2019-02-22T14:24:28.486Z,8.60
2019-02-22T14:25:39.698Z,10.43
2019-02-22T14:27:25.205Z,7.03
2019-02-22T14:28:34.841Z,9.63
2019-02-22T14:29:40.412Z,6.65
2019-02-22T14:30:45.914Z,7.37
2019-02-22T14:31:52.083Z,7.47
2019-02-22T14:32:57.190Z,10.00
2019-02-22T14:34:02.372Z,9.35
2019-02-22T14:35:07.571Z,7.22
2019-02-22T14:36:23.908Z,9.80
2019-02-22T14:37:28.349Z,11.30
2019-02-22T14:38:36.188Z,9.93
2019-02-22T14:39:43.899Z,10.05